createdAt,value
2022-12-08T00:01:14.012Z,79.97
2022-12-08T00:03:41.291Z,61.22
2022-12-08T00:06:41.229Z,76.47
2022-12-08T00:09:22.515Z,45.45
2022-12-08T00:11:57.531Z,56.55
2022-12-08T00:14:30.078Z,22.88
2022-12-08T00:16:57.547Z,29.02
2022-12-08T00:19:24.881Z,23.10
2022-12-08T00:21:52.320Z,23.15
2022-12-08T00:24:19.462Z,85.32
2022-12-08T00:26:46.869Z,26.27
2022-12-08T00:29:17.321Z,35.55
2022-12-08T00:31:44.713Z,29.83
2022-12-08T00:34:15.548Z,24.42
2022-12-08T00:36:42.780Z,27.13
2022-12-08T00:39:10.759Z,21.15
2022-12-08T00:41:55.897Z,20.70
2022-12-08T00:44:22.557Z,31.83
2022-12-08T00:46:49.493Z,24.25
2022-12-08T00:49:16.944Z,28.67
2022-12-08T00:51:44.048Z,24.00
2022-12-08T00:54:11.726Z,27.02
2022-12-08T00:56:38.512Z,26.05
2022-12-08T00:59:07.033Z,25.17
2022-12-08T01:01:34.869Z,29.55
2022-12-08T01:04:10.225Z,24.50
2022-12-08T01:09:05.251Z,30.05
2022-12-08T01:11:32.642Z,28.85
2022-12-08T01:13:59.380Z,33.42
2022-12-08T01:16:29.235Z,31.58
2022-12-08T01:18:57.637Z,31.77
2022-12-08T01:21:24.406Z,37.40
2022-12-08T01:23:51.250Z,25.85
2022-12-08T01:26:19.181Z,29.85
2022-12-08T01:28:46.910Z,30.67
2022-12-08T01:31:16.874Z,27.65
2022-12-08T01:33:43.950Z,32.70
2022-12-08T01:36:23.519Z,27.85
2022-12-08T01:38:51.101Z,29.17
2022-12-08T01:41:21.123Z,32.97
2022-12-08T01:44:02.587Z,29.20
2022-12-08T01:46:31.888Z,27.52
2022-12-08T01:49:23.380Z,32.13
2022-12-08T01:51:55.588Z,30.92
2022-12-08T01:54:24.106Z,27.35
2022-12-08T01:57:08.490Z,32.78
2022-12-08T01:59:40.347Z,29.38
2022-12-08T02:02:08.610Z,36.05
2022-12-08T02:04:35.405Z,31.00
2022-12-08T02:07:07.823Z,34.53
2022-12-08T02:09:36.008Z,34.63
2022-12-08T02:12:02.726Z,30.67
2022-12-08T02:14:29.487Z,39.53
2022-12-08T02:17:14.319Z,39.72
2022-12-08T02:19:55.075Z,34.97
2022-12-08T02:22:59.380Z,32.83
2022-12-08T02:25:55.045Z,32.60
2022-12-08T02:29:00.267Z,38.90
2022-12-08T02:32:19.965Z,33.53
2022-12-08T02:35:11.362Z,35.67
2022-12-08T02:37:55.276Z,38.95
2022-12-08T02:40:47.536Z,34.90
2022-12-08T02:43:23.019Z,32.08
2022-12-08T02:45:55.539Z,35.92
2022-12-08T02:48:22.307Z,34.70
2022-12-08T02:50:48.934Z,29.77
2022-12-08T02:56:05.970Z,32.80
2022-12-08T02:59:01.589Z,31.33
2022-12-08T03:01:34.369Z,31.48
2022-12-08T03:04:36.147Z,30.63
2022-12-08T03:07:05.782Z,32.50
2022-12-08T03:10:05.786Z,28.55
2022-12-08T03:12:56.829Z,28.73
2022-12-08T03:15:23.709Z,28.50
2022-12-08T03:17:57.390Z,31.77
2022-12-08T03:20:26.036Z,41.30
2022-12-08T03:22:56.245Z,40.08
2022-12-08T03:25:28.340Z,34.75
2022-12-08T03:27:55.014Z,35.17
2022-12-08T03:30:21.733Z,43.95
2022-12-08T03:33:23.338Z,36.55
2022-12-08T03:35:51.032Z,33.72
2022-12-08T03:38:17.965Z,32.75
2022-12-08T03:41:05.457Z,29.50
2022-12-08T03:43:32.195Z,35.03
2022-12-08T03:45:58.932Z,34.83
2022-12-08T03:48:25.629Z,30.27
2022-12-08T03:50:52.315Z,31.50
2022-12-08T03:53:19.033Z,36.17
2022-12-08T03:55:45.768Z,34.58
2022-12-08T03:58:12.368Z,38.15
2022-12-08T04:00:38.958Z,36.03
2022-12-08T04:03:06.507Z,37.90
2022-12-08T04:05:33.277Z,36.80
2022-12-08T04:08:01.240Z,43.28
2022-12-08T04:10:28.178Z,36.42
2022-12-08T04:12:54.819Z,40.50
2022-12-08T04:15:21.534Z,35.20
2022-12-08T04:17:48.156Z,43.25
2022-12-08T04:20:14.869Z,40.55
2022-12-08T04:22:41.516Z,43.85
2022-12-08T04:25:08.616Z,37.25
2022-12-08T04:27:35.445Z,54.17
2022-12-08T04:30:02.647Z,43.63
2022-12-08T04:32:29.476Z,53.00
2022-12-08T04:34:56.279Z,130.65
2022-12-08T04:37:22.956Z,48.67
2022-12-08T04:39:49.667Z,34.97
2022-12-08T04:42:16.334Z,53.50
2022-12-08T04:44:43.057Z,38.22
2022-12-08T04:47:09.722Z,36.72
2022-12-08T04:49:36.449Z,53.00
2022-12-08T04:52:03.491Z,66.47
2022-12-08T04:54:30.193Z,56.03
2022-12-08T04:56:56.971Z,42.72
2022-12-08T04:59:23.691Z,47.50
2022-12-08T05:01:50.637Z,47.40
2022-12-08T05:04:17.463Z,41.92
2022-12-08T05:06:44.116Z,84.93
2022-12-08T05:09:11.111Z,51.33
2022-12-08T05:11:48.408Z,50.92
2022-12-08T05:14:17.064Z,75.05
2022-12-08T05:16:46.333Z,210.93
2022-12-08T05:19:14.045Z,224.48
2022-12-08T05:21:40.758Z,107.05
2022-12-08T05:24:07.559Z,143.35
2022-12-08T05:26:34.259Z,296.85
2022-12-08T05:29:01.004Z,270.52
2022-12-08T05:31:27.800Z,286.80
2022-12-08T05:33:58.391Z,139.77
2022-12-08T05:36:27.722Z,87.97
2022-12-08T05:38:56.956Z,273.40
2022-12-08T05:41:23.968Z,276.20
2022-12-08T05:43:50.853Z,276.33
2022-12-08T05:46:28.126Z,326.48
2022-12-08T05:48:54.868Z,289.02
2022-12-08T05:51:23.986Z,275.88
2022-12-08T05:53:51.505Z,259.30
2022-12-08T05:56:18.995Z,285.98
2022-12-08T05:58:46.266Z,453.67
2022-12-08T06:01:23.431Z,249.93
2022-12-08T06:03:50.581Z,464.67
2022-12-08T06:06:17.648Z,476.83
2022-12-08T06:08:44.448Z,209.35
2022-12-08T06:11:18.312Z,146.38
2022-12-08T06:13:45.334Z,291.67
2022-12-08T06:16:12.082Z,146.60
2022-12-08T06:18:38.883Z,412.20
2022-12-08T06:21:11.885Z,335.85
2022-12-08T06:23:39.037Z,388.02
2022-12-08T06:26:13.578Z,277.20
2022-12-08T06:28:41.402Z,166.75
2022-12-08T06:31:16.938Z,178.43
2022-12-08T06:33:43.888Z,159.07
2022-12-08T06:36:12.889Z,120.78
2022-12-08T06:38:43.271Z,129.73
2022-12-08T06:41:11.068Z,327.58
2022-12-08T06:43:37.939Z,220.90
2022-12-08T06:46:06.488Z,253.52
2022-12-08T06:48:33.489Z,126.43
2022-12-08T06:51:11.412Z,315.98
2022-12-08T07:05:08.403Z,299.77
2022-12-08T07:07:35.019Z,288.02
2022-12-08T07:10:01.881Z,203.20
2022-12-08T07:12:28.783Z,269.38
2022-12-08T07:14:55.469Z,117.20
2022-12-08T07:17:22.121Z,156.60
2022-12-08T07:19:48.770Z,186.68
2022-12-08T07:22:15.443Z,109.28
2022-12-08T07:24:42.110Z,78.35
2022-12-08T07:27:08.853Z,109.45
2022-12-08T07:29:35.490Z,59.70
2022-12-08T07:32:02.171Z,56.42
2022-12-08T07:34:28.876Z,105.13
2022-12-08T07:36:55.515Z,52.15
2022-12-08T07:39:22.142Z,122.22
2022-12-08T07:41:48.764Z,113.55
2022-12-08T07:44:15.521Z,140.05
2022-12-08T07:46:42.280Z,99.15
2022-12-08T07:49:09.062Z,112.38
2022-12-08T07:51:35.858Z,145.95
2022-12-08T07:54:02.581Z,46.63
2022-12-08T07:56:29.298Z,126.45
2022-12-08T07:58:55.987Z,186.63
2022-12-08T08:01:26.921Z,59.67
2022-12-08T08:03:55.347Z,218.98
2022-12-08T08:06:22.161Z,233.80
2022-12-08T08:08:48.898Z,227.73
2022-12-08T08:11:20.893Z,312.15
2022-12-08T08:13:48.786Z,90.38
2022-12-08T08:16:15.563Z,183.95
2022-12-08T08:18:42.406Z,260.70
2022-12-08T08:21:43.106Z,258.15
2022-12-08T08:23:55.961Z,139.95
2022-12-08T08:26:22.675Z,170.05
2022-12-08T08:28:50.186Z,120.78
2022-12-08T08:31:16.981Z,125.70
2022-12-08T08:33:43.682Z,69.85
2022-12-08T08:36:11.031Z,57.78
2022-12-08T08:38:40.430Z,143.07
2022-12-08T08:41:09.359Z,191.65
2022-12-08T08:43:38.530Z,229.00
2022-12-08T08:46:06.405Z,165.82
2022-12-08T08:48:33.661Z,56.45
2022-12-08T08:51:07.893Z,164.32
2022-12-08T08:53:34.592Z,170.48
2022-12-08T08:56:02.788Z,56.55
2022-12-08T08:58:29.754Z,57.80
2022-12-08T09:00:56.570Z,108.40
2022-12-08T09:03:23.444Z,151.90
2022-12-08T09:05:50.603Z,75.63
2022-12-08T09:08:17.819Z,60.92
2022-12-08T09:10:44.605Z,128.85
2022-12-08T09:13:11.208Z,122.70
2022-12-08T09:15:37.886Z,64.07
2022-12-08T09:18:06.766Z,92.28
2022-12-08T09:20:34.600Z,60.67
2022-12-08T09:23:01.449Z,123.22
2022-12-08T09:25:28.774Z,120.65
2022-12-08T09:27:55.419Z,89.75
2022-12-08T09:30:22.267Z,66.03
2022-12-08T09:32:48.914Z,95.57
2022-12-08T09:35:15.574Z,115.80
2022-12-08T09:37:42.364Z,75.93
2022-12-08T09:40:12.003Z,144.48
2022-12-08T09:42:59.905Z,56.55
2022-12-08T09:45:30.353Z,128.30
2022-12-08T09:48:05.660Z,50.08
2022-12-08T09:53:12.652Z,96.63
2022-12-08T09:55:43.410Z,150.15
2022-12-08T09:58:18.105Z,72.65
2022-12-08T10:00:44.861Z,111.03
2022-12-08T10:03:16.948Z,49.60
2022-12-08T10:05:50.193Z,103.15
2022-12-08T10:08:21.625Z,47.70
2022-12-08T10:11:48.096Z,63.63
2022-12-08T10:14:14.776Z,104.35
2022-12-08T10:16:42.868Z,118.47
2022-12-08T10:19:24.383Z,107.55
2022-12-08T10:21:51.516Z,75.97
2022-12-08T10:24:34.688Z,84.85
2022-12-08T10:27:02.642Z,94.72
2022-12-08T10:29:29.400Z,152.85
2022-12-08T10:32:00.062Z,70.97
2022-12-08T10:34:26.877Z,83.72
2022-12-08T10:36:56.307Z,98.35
2022-12-08T10:39:40.848Z,62.47
2022-12-08T10:42:19.972Z,80.78
2022-12-08T10:44:59.117Z,84.90
2022-12-08T10:47:27.297Z,83.38
2022-12-08T10:50:20.297Z,89.22
2022-12-08T10:52:55.842Z,70.45
2022-12-08T10:55:23.627Z,211.70
2022-12-08T10:57:50.645Z,53.65
2022-12-08T11:00:24.360Z,96.00
2022-12-08T11:02:55.463Z,58.40
2022-12-08T11:05:24.000Z,62.00
2022-12-08T11:07:53.051Z,55.22
2022-12-08T11:10:21.461Z,116.70
2022-12-08T11:12:49.532Z,107.13
2022-12-08T11:15:18.257Z,64.18
2022-12-08T11:17:50.108Z,52.33
2022-12-08T11:20:23.530Z,67.68
2022-12-08T11:22:55.245Z,58.50
2022-12-08T11:25:27.124Z,84.22
2022-12-08T11:27:58.785Z,129.57
2022-12-08T11:30:29.455Z,52.70
2022-12-08T11:33:03.792Z,76.55
2022-12-08T11:35:34.177Z,75.22
2022-12-08T11:38:22.823Z,71.18
2022-12-08T11:41:17.065Z,78.72
2022-12-08T11:43:52.117Z,55.22
2022-12-08T11:46:25.443Z,36.97
2022-12-08T11:49:06.010Z,79.47
2022-12-08T11:51:53.767Z,70.85
2022-12-08T11:54:30.982Z,55.53
2022-12-08T11:57:13.047Z,156.73
2022-12-08T11:59:49.742Z,73.00
2022-12-08T12:02:25.780Z,71.68
2022-12-08T12:04:58.402Z,63.33
2022-12-08T12:07:44.033Z,102.80
2022-12-08T12:10:13.340Z,76.35
2022-12-08T12:12:49.893Z,124.10
2022-12-08T12:15:22.631Z,89.75
2022-12-08T12:18:04.540Z,59.72
2022-12-08T12:20:35.492Z,84.47
2022-12-08T12:23:08.615Z,140.93
2022-12-08T12:25:36.185Z,78.60
2022-12-08T12:28:06.282Z,70.78
2022-12-08T12:30:52.542Z,76.28
2022-12-08T12:33:19.916Z,99.97
2022-12-08T12:35:48.311Z,57.63
2022-12-08T12:38:36.514Z,135.20
2022-12-08T12:41:04.470Z,89.32
2022-12-08T12:43:34.195Z,87.07
2022-12-08T12:46:36.238Z,69.30
2022-12-08T12:49:39.857Z,134.65
2022-12-08T12:52:15.620Z,143.48
2022-12-08T12:54:43.413Z,132.18
2022-12-08T12:57:12.988Z,123.70
2022-12-08T13:00:05.696Z,54.25
2022-12-08T13:02:53.693Z,46.50
2022-12-08T13:05:30.368Z,54.72
2022-12-08T13:08:07.144Z,38.80
2022-12-08T13:10:41.291Z,70.97
2022-12-08T13:13:10.934Z,54.58
2022-12-08T13:15:48.953Z,92.05
2022-12-08T13:18:38.942Z,55.50
2022-12-08T13:21:08.811Z,105.15
2022-12-08T13:23:38.491Z,119.40
2022-12-08T13:26:14.165Z,52.00
2022-12-08T13:28:59.742Z,89.72
2022-12-08T13:34:17.780Z,57.17
2022-12-08T13:37:12.459Z,61.42
2022-12-08T13:39:39.110Z,94.30
2022-12-08T13:42:29.653Z,57.47
2022-12-08T13:52:59.929Z,172.63
2022-12-08T13:57:02.737Z,100.50
2022-12-08T13:59:20.132Z,135.43
2022-12-08T14:01:49.162Z,131.85
2022-12-08T14:07:13.203Z,102.97
2022-12-08T14:09:40.702Z,109.85
2022-12-08T14:12:22.543Z,142.98
2022-12-08T14:15:07.786Z,166.68
2022-12-08T14:17:34.658Z,136.27
2022-12-08T14:20:04.786Z,123.60
2022-12-08T14:22:36.163Z,145.90
2022-12-08T14:25:03.867Z,161.80
2022-12-08T14:27:34.567Z,153.57
2022-12-08T14:30:25.635Z,107.28
2022-12-08T14:32:58.426Z,163.32
2022-12-08T14:35:32.247Z,195.90
2022-12-08T14:38:01.555Z,124.95
2022-12-08T14:40:35.051Z,136.07
2022-12-08T14:43:07.661Z,121.88
2022-12-08T14:45:41.076Z,169.75
2022-12-08T14:48:33.724Z,134.20
2022-12-08T14:51:03.465Z,126.43
2022-12-08T14:53:40.257Z,143.73
2022-12-08T14:56:09.450Z,278.65
2022-12-08T14:58:36.083Z,112.03
2022-12-08T15:01:05.297Z,228.30
2022-12-08T15:03:32.620Z,182.68
2022-12-08T15:06:07.261Z,158.52
2022-12-08T15:08:35.177Z,221.82
2022-12-08T15:11:23.986Z,84.13
2022-12-08T15:13:52.179Z,125.72
2022-12-08T15:16:38.119Z,214.15
2022-12-08T15:19:17.029Z,214.35
2022-12-08T15:21:44.697Z,136.95
2022-12-08T15:24:12.645Z,163.23
2022-12-08T15:26:45.019Z,145.73
2022-12-08T15:29:20.990Z,73.05
2022-12-08T15:31:47.913Z,188.13
2022-12-08T15:34:14.556Z,202.30
2022-12-08T15:36:43.040Z,192.15
2022-12-08T15:39:25.949Z,130.40
2022-12-08T15:41:52.588Z,188.23
2022-12-08T15:44:19.249Z,270.17
2022-12-08T15:46:46.022Z,181.02
2022-12-08T15:49:23.568Z,187.27
2022-12-08T15:51:53.142Z,193.60
2022-12-08T15:54:23.233Z,262.95
2022-12-08T15:57:18.110Z,143.32
2022-12-08T15:59:39.073Z,287.40
2022-12-08T16:02:05.771Z,167.93
2022-12-08T16:07:25.334Z,206.65
2022-12-08T16:09:52.494Z,142.02
2022-12-08T16:13:27.242Z,168.48
2022-12-08T16:18:16.975Z,228.63
2022-12-08T16:21:07.504Z,84.75
2022-12-08T16:23:43.084Z,165.55
2022-12-08T16:27:01.074Z,141.02
2022-12-08T16:29:07.248Z,118.60
2022-12-08T16:31:34.041Z,82.95
2022-12-08T16:34:00.922Z,88.75
2022-12-08T16:36:27.560Z,181.80
2022-12-08T16:38:54.231Z,117.70
2022-12-08T16:41:39.699Z,65.78
2022-12-08T16:44:06.646Z,111.20
2022-12-08T16:46:33.756Z,93.65
2022-12-08T16:49:00.474Z,73.47
2022-12-08T16:51:27.694Z,71.78
2022-12-08T16:53:55.741Z,100.53
2022-12-08T16:56:28.807Z,61.58
2022-12-08T16:58:58.839Z,46.80
2022-12-08T17:01:25.619Z,44.08
2022-12-08T17:04:22.571Z,47.08
2022-12-08T17:06:39.285Z,170.85
2022-12-08T17:09:05.975Z,150.38
2022-12-08T17:11:37.487Z,85.68
2022-12-08T17:14:09.262Z,167.68
2022-12-08T17:16:36.077Z,157.02
2022-12-08T17:19:02.877Z,143.43
2022-12-08T17:21:29.791Z,84.15
2022-12-08T17:23:56.553Z,74.30
2022-12-08T17:26:23.211Z,85.40
2022-12-08T17:29:05.554Z,80.85
2022-12-08T17:31:33.305Z,190.35
2022-12-08T17:34:04.816Z,104.47
2022-12-08T17:36:31.864Z,160.30
2022-12-08T17:39:02.001Z,185.70
2022-12-08T17:41:29.317Z,162.30
2022-12-08T17:43:56.182Z,230.07
2022-12-08T17:46:23.460Z,68.85
2022-12-08T17:48:50.200Z,84.03
2022-12-08T17:51:16.870Z,93.95
2022-12-08T17:53:43.779Z,89.70
2022-12-08T17:56:19.041Z,47.08
2022-12-08T17:58:51.089Z,164.63
2022-12-08T18:01:21.154Z,92.47
2022-12-08T18:03:47.786Z,182.32
2022-12-08T18:06:14.496Z,75.30
2022-12-08T18:08:41.208Z,79.50
2022-12-08T18:11:16.629Z,47.22
2022-12-08T18:16:09.919Z,58.90
2022-12-08T18:18:36.769Z,71.03
2022-12-08T18:21:03.935Z,81.57
2022-12-08T18:23:30.701Z,105.80
2022-12-08T18:25:57.398Z,78.68
2022-12-08T18:28:24.358Z,47.03
2022-12-08T18:30:51.265Z,106.15
2022-12-08T18:33:18.071Z,63.40
2022-12-08T18:35:44.751Z,105.22
2022-12-08T18:38:11.361Z,68.75
2022-12-08T18:40:38.182Z,86.50
2022-12-08T18:43:04.857Z,60.70
2022-12-08T18:45:31.574Z,72.85
2022-12-08T18:47:58.183Z,95.18
2022-12-08T18:50:24.944Z,79.05
2022-12-08T18:52:51.622Z,112.68
2022-12-08T18:55:18.401Z,128.13
2022-12-08T18:57:45.499Z,143.70
2022-12-08T19:00:15.228Z,117.93
2022-12-08T19:02:42.271Z,178.80
2022-12-08T19:05:11.003Z,114.88
2022-12-08T19:07:38.146Z,94.00
2022-12-08T19:10:06.763Z,119.45
2022-12-08T19:12:33.695Z,159.75
2022-12-08T19:15:00.309Z,106.97
2022-12-08T19:17:26.960Z,109.78
2022-12-08T19:19:53.612Z,90.88
2022-12-08T19:22:20.253Z,63.42
2022-12-08T19:24:47.192Z,176.40
2022-12-08T19:27:13.875Z,72.55
2022-12-08T19:29:40.545Z,117.90
2022-12-08T19:32:07.211Z,141.63
2022-12-08T19:34:33.933Z,56.50
2022-12-08T19:37:00.522Z,193.02
2022-12-08T19:39:45.995Z,147.98
2022-12-08T19:42:36.221Z,91.93
2022-12-08T19:45:21.954Z,326.83
2022-12-08T19:50:34.811Z,120.35
2022-12-08T19:53:02.504Z,285.70
2022-12-08T19:55:29.532Z,206.60
2022-12-08T19:57:57.205Z,145.63
2022-12-08T20:00:24.285Z,99.55
2022-12-08T20:02:51.328Z,397.88
2022-12-08T20:05:18.121Z,123.60
2022-12-08T20:07:44.916Z,113.95
2022-12-08T20:10:18.129Z,164.48
2022-12-08T20:12:44.791Z,141.10
2022-12-08T20:15:11.688Z,103.18
2022-12-08T20:17:38.949Z,47.65
2022-12-08T20:20:07.801Z,81.28
2022-12-08T20:22:35.131Z,138.55
2022-12-08T20:25:02.393Z,161.30
2022-12-08T20:27:29.270Z,106.25
2022-12-08T20:29:56.004Z,98.80
2022-12-08T20:32:22.770Z,124.15
2022-12-08T20:34:49.553Z,94.43
2022-12-08T20:37:16.331Z,82.40
2022-12-08T20:39:42.988Z,98.10
2022-12-08T20:42:13.204Z,157.05
2022-12-08T20:44:43.390Z,157.35
2022-12-08T20:47:11.513Z,111.63
2022-12-08T20:49:38.683Z,79.68
2022-12-08T20:52:05.848Z,95.07
2022-12-08T20:54:32.807Z,141.60
2022-12-08T20:56:59.660Z,38.95
2022-12-08T20:59:26.977Z,124.65
2022-12-08T21:01:54.477Z,113.97
2022-12-08T21:04:22.250Z,43.35
2022-12-08T21:06:49.976Z,98.05
2022-12-08T21:09:16.762Z,96.25
2022-12-08T21:11:43.911Z,96.93
2022-12-08T21:14:10.814Z,180.70
2022-12-08T21:16:38.008Z,265.27
2022-12-08T21:19:06.147Z,257.40
2022-12-08T21:21:33.054Z,172.68
2022-12-08T21:24:00.038Z,197.65
2022-12-08T21:26:27.004Z,199.63
2022-12-08T21:28:54.997Z,271.33
2022-12-08T21:31:22.261Z,106.30
2022-12-08T21:33:49.190Z,125.03
2022-12-08T21:36:19.397Z,118.80
2022-12-08T21:38:47.276Z,146.93
2022-12-08T21:41:16.851Z,108.97
2022-12-08T21:43:43.745Z,134.45
2022-12-08T21:46:19.195Z,102.43
2022-12-08T21:48:46.580Z,56.65
2022-12-08T21:51:13.356Z,74.20
2022-12-08T21:53:40.174Z,82.88
2022-12-08T21:56:10.401Z,60.17
2022-12-08T21:58:37.302Z,86.65
2022-12-08T22:01:08.343Z,120.47
2022-12-08T22:03:35.747Z,318.75
2022-12-08T22:06:06.758Z,141.82
2022-12-08T22:08:33.541Z,56.40
2022-12-08T22:11:00.581Z,206.30
2022-12-08T22:13:27.369Z,45.25
2022-12-08T22:15:58.059Z,193.70
2022-12-08T22:18:25.153Z,206.68
2022-12-08T22:20:52.351Z,134.55
2022-12-08T22:23:19.450Z,211.18
2022-12-08T22:25:46.301Z,42.20
2022-12-08T22:28:13.002Z,91.68
2022-12-08T22:30:39.777Z,93.38
2022-12-08T22:33:06.682Z,240.88
2022-12-08T22:35:33.405Z,45.38
2022-12-08T22:38:00.108Z,91.05
2022-12-08T22:40:26.790Z,46.30
2022-12-08T22:42:53.429Z,47.80
2022-12-08T22:45:20.092Z,42.58
2022-12-08T22:47:46.763Z,54.08
2022-12-08T22:50:13.759Z,33.42
2022-12-08T22:52:40.401Z,33.95
2022-12-08T22:55:07.715Z,32.25
2022-12-08T22:57:34.362Z,34.40
2022-12-08T23:00:01.011Z,32.15
2022-12-08T23:02:27.812Z,30.83
2022-12-08T23:04:57.919Z,26.35
2022-12-08T23:07:24.768Z,29.20
2022-12-08T23:09:52.400Z,26.30
2022-12-08T23:12:19.141Z,25.98
2022-12-08T23:14:46.066Z,28.65
2022-12-08T23:17:13.187Z,29.40
2022-12-08T23:19:40.386Z,28.77
2022-12-08T23:22:07.506Z,28.00
2022-12-08T23:24:34.413Z,25.48
2022-12-08T23:27:01.181Z,24.63
2022-12-08T23:29:27.801Z,24.38
2022-12-08T23:31:54.710Z,19.65
2022-12-08T23:34:21.468Z,19.63
2022-12-08T23:36:48.140Z,19.50
2022-12-08T23:39:15.233Z,24.52
2022-12-08T23:41:41.950Z,25.38
2022-12-08T23:44:09.304Z,20.58
2022-12-08T23:46:36.200Z,23.40
2022-12-08T23:49:03.036Z,24.23
2022-12-08T23:51:30.133Z,25.55
2022-12-08T23:53:57.125Z,32.20
2022-12-08T23:56:29.863Z,29.60
2022-12-08T23:58:57.115Z,24.63
